sensor_id;sensor_type;location;lat;lon;timestamp;P1;durP1;ratioP1;P2;durP2;ratioP2
11348;SDS011;5729;43.570;27.826;2023-08-06T00:02:17;21.98;;;10.32;;
11348;SDS011;5729;43.570;27.826;2023-08-06T00:04:43;14.13;;;10.00;;
11348;SDS011;5729;43.570;27.826;2023-08-06T00:07:08;16.35;;;10.27;;
11348;SDS011;5729;43.570;27.826;2023-08-06T00:09:33;14.45;;;9.90;;
11348;SDS011;5729;43.570;27.826;2023-08-06T00:11:59;15.15;;;10.10;;
11348;SDS011;5729;43.570;27.826;2023-08-06T00:14:24;14.05;;;10.90;;
11348;SDS011;5729;43.570;27.826;2023-08-06T00:16:50;14.65;;;10.38;;
11348;SDS011;5729;43.570;27.826;2023-08-06T00:19:15;14.85;;;10.40;;
11348;SDS011;5729;43.570;27.826;2023-08-06T00:21:40;18.98;;;10.80;;
11348;SDS011;5729;43.570;27.826;2023-08-06T00:24:06;20.45;;;10.68;;
11348;SDS011;5729;43.570;27.826;2023-08-06T00:26:31;19.20;;;10.57;;
11348;SDS011;5729;43.570;27.826;2023-08-06T00:28:57;13.88;;;10.85;;
11348;SDS011;5729;43.570;27.826;2023-08-06T00:31:22;14.48;;;9.82;;
11348;SDS011;5729;43.570;27.826;2023-08-06T00:33:48;14.98;;;10.57;;
11348;SDS011;5729;43.570;27.826;2023-08-06T00:36:13;13.88;;;10.48;;
11348;SDS011;5729;43.570;27.826;2023-08-06T00:38:38;15.32;;;10.27;;
11348;SDS011;5729;43.570;27.826;2023-08-06T00:41:04;14.90;;;9.90;;
11348;SDS011;5729;43.570;27.826;2023-08-06T00:43:29;11.65;;;9.40;;
11348;SDS011;5729;43.570;27.826;2023-08-06T00:45:55;17.52;;;9.85;;
11348;SDS011;5729;43.570;27.826;2023-08-06T00:48:21;14.95;;;9.73;;
11348;SDS011;5729;43.570;27.826;2023-08-06T00:50:46;14.43;;;9.85;;
11348;SDS011;5729;43.570;27.826;2023-08-06T00:53:12;12.98;;;9.75;;
11348;SDS011;5729;43.570;27.826;2023-08-06T00:55:38;20.15;;;10.45;;
11348;SDS011;5729;43.570;27.826;2023-08-06T00:58:03;16.13;;;10.48;;
11348;SDS011;5729;43.570;27.826;2023-08-06T01:00:29;15.32;;;9.90;;
11348;SDS011;5729;43.570;27.826;2023-08-06T01:02:55;16.85;;;9.88;;
11348;SDS011;5729;43.570;27.826;2023-08-06T01:05:21;14.80;;;9.30;;
11348;SDS011;5729;43.570;27.826;2023-08-06T01:11:07;16.58;;;10.27;;
11348;SDS011;5729;43.570;27.826;2023-08-06T01:16:11;13.85;;;9.50;;
11348;SDS011;5729;43.570;27.826;2023-08-06T01:18:36;17.02;;;10.35;;
11348;SDS011;5729;43.570;27.826;2023-08-06T01:21:04;18.38;;;9.80;;
11348;SDS011;5729;43.570;27.826;2023-08-06T01:23:29;14.88;;;8.50;;
11348;SDS011;5729;43.570;27.826;2023-08-06T01:31:36;13.70;;;9.10;;
11348;SDS011;5729;43.570;27.826;2023-08-06T01:34:03;15.57;;;9.85;;
11348;SDS011;5729;43.570;27.826;2023-08-06T01:36:31;16.17;;;9.00;;
11348;SDS011;5729;43.570;27.826;2023-08-06T01:38:57;19.52;;;9.55;;
11348;SDS011;5729;43.570;27.826;2023-08-06T01:41:22;13.43;;;8.98;;
11348;SDS011;5729;43.570;27.826;2023-08-06T01:43:48;14.23;;;8.48;;
11348;SDS011;5729;43.570;27.826;2023-08-06T01:46:13;12.10;;;9.38;;
11348;SDS011;5729;43.570;27.826;2023-08-06T01:48:39;25.67;;;10.18;;
11348;SDS011;5729;43.570;27.826;2023-08-06T01:51:05;13.73;;;8.95;;
11348;SDS011;5729;43.570;27.826;2023-08-06T01:53:31;14.93;;;9.60;;
11348;SDS011;5729;43.570;27.826;2023-08-06T01:55:57;16.33;;;9.35;;
11348;SDS011;5729;43.570;27.826;2023-08-06T01:58:22;14.27;;;8.82;;
11348;SDS011;5729;43.570;27.826;2023-08-06T02:00:48;13.55;;;9.57;;
11348;SDS011;5729;43.570;27.826;2023-08-06T02:03:13;13.73;;;8.90;;
11348;SDS011;5729;43.570;27.826;2023-08-06T02:05:39;15.15;;;8.90;;
11348;SDS011;5729;43.570;27.826;2023-08-06T02:08:05;15.48;;;8.98;;
11348;SDS011;5729;43.570;27.826;2023-08-06T02:10:30;18.27;;;9.70;;
11348;SDS011;5729;43.570;27.826;2023-08-06T02:12:56;15.65;;;9.90;;
11348;SDS011;5729;43.570;27.826;2023-08-06T02:15:21;14.77;;;9.02;;
11348;SDS011;5729;43.570;27.826;2023-08-06T02:17:46;16.95;;;8.85;;
11348;SDS011;5729;43.570;27.826;2023-08-06T02:20:12;14.68;;;9.55;;
11348;SDS011;5729;43.570;27.826;2023-08-06T02:22:38;14.95;;;9.75;;
11348;SDS011;5729;43.570;27.826;2023-08-06T02:25:03;15.52;;;9.05;;
11348;SDS011;5729;43.570;27.826;2023-08-06T02:27:29;12.00;;;8.93;;
11348;SDS011;5729;43.570;27.826;2023-08-06T02:29:54;16.15;;;8.70;;
11348;SDS011;5729;43.570;27.826;2023-08-06T02:32:20;13.32;;;8.90;;
11348;SDS011;5729;43.570;27.826;2023-08-06T02:34:45;15.27;;;9.18;;
11348;SDS011;5729;43.570;27.826;2023-08-06T02:37:11;14.00;;;9.20;;
11348;SDS011;5729;43.570;27.826;2023-08-06T02:39:36;13.77;;;8.98;;
11348;SDS011;5729;43.570;27.826;2023-08-06T02:42:04;15.50;;;9.35;;
11348;SDS011;5729;43.570;27.826;2023-08-06T02:44:33;12.13;;;9.25;;
11348;SDS011;5729;43.570;27.826;2023-08-06T02:46:59;16.33;;;9.45;;
11348;SDS011;5729;43.570;27.826;2023-08-06T02:49:25;17.42;;;10.48;;
11348;SDS011;5729;43.570;27.826;2023-08-06T02:51:51;13.93;;;9.32;;
11348;SDS011;5729;43.570;27.826;2023-08-06T02:54:17;19.75;;;9.82;;
11348;SDS011;5729;43.570;27.826;2023-08-06T02:56:43;16.20;;;9.93;;
11348;SDS011;5729;43.570;27.826;2023-08-06T02:59:10;16.88;;;9.45;;
11348;SDS011;5729;43.570;27.826;2023-08-06T03:01:36;14.90;;;9.90;;
11348;SDS011;5729;43.570;27.826;2023-08-06T03:04:01;17.25;;;10.55;;
11348;SDS011;5729;43.570;27.826;2023-08-06T03:06:27;17.55;;;9.70;;
11348;SDS011;5729;43.570;27.826;2023-08-06T03:08:52;14.35;;;9.63;;
11348;SDS011;5729;43.570;27.826;2023-08-06T03:11:18;12.90;;;8.95;;
11348;SDS011;5729;43.570;27.826;2023-08-06T03:13:43;15.05;;;10.43;;
11348;SDS011;5729;43.570;27.826;2023-08-06T03:16:08;17.13;;;10.15;;
11348;SDS011;5729;43.570;27.826;2023-08-06T03:18:34;16.17;;;9.93;;
11348;SDS011;5729;43.570;27.826;2023-08-06T03:20:59;15.43;;;9.68;;
11348;SDS011;5729;43.570;27.826;2023-08-06T03:23:25;14.57;;;9.57;;
11348;SDS011;5729;43.570;27.826;2023-08-06T03:25:50;13.85;;;10.55;;
11348;SDS011;5729;43.570;27.826;2023-08-06T03:28:15;15.38;;;10.00;;
11348;SDS011;5729;43.570;27.826;2023-08-06T03:30:41;15.77;;;9.52;;
11348;SDS011;5729;43.570;27.826;2023-08-06T03:33:07;16.23;;;10.90;;
11348;SDS011;5729;43.570;27.826;2023-08-06T03:35:32;13.93;;;10.52;;
11348;SDS011;5729;43.570;27.826;2023-08-06T03:37:58;15.98;;;10.50;;
11348;SDS011;5729;43.570;27.826;2023-08-06T03:40:23;15.73;;;9.93;;
11348;SDS011;5729;43.570;27.826;2023-08-06T03:42:48;14.23;;;9.57;;
11348;SDS011;5729;43.570;27.826;2023-08-06T03:45:14;17.92;;;10.50;;
11348;SDS011;5729;43.570;27.826;2023-08-06T03:47:40;18.58;;;10.55;;
11348;SDS011;5729;43.570;27.826;2023-08-06T03:50:06;14.05;;;9.98;;
11348;SDS011;5729;43.570;27.826;2023-08-06T03:52:31;18.02;;;10.63;;
11348;SDS011;5729;43.570;27.826;2023-08-06T03:54:57;16.45;;;10.75;;
11348;SDS011;5729;43.570;27.826;2023-08-06T03:57:22;14.43;;;10.30;;
11348;SDS011;5729;43.570;27.826;2023-08-06T03:59:48;22.35;;;10.85;;
11348;SDS011;5729;43.570;27.826;2023-08-06T04:02:13;19.10;;;9.63;;
11348;SDS011;5729;43.570;27.826;2023-08-06T04:04:38;14.35;;;10.82;;
11348;SDS011;5729;43.570;27.826;2023-08-06T04:07:04;17.70;;;11.13;;
11348;SDS011;5729;43.570;27.826;2023-08-06T04:09:30;22.08;;;11.18;;
11348;SDS011;5729;43.570;27.826;2023-08-06T04:11:55;19.67;;;10.88;;
11348;SDS011;5729;43.570;27.826;2023-08-06T04:14:21;14.32;;;10.80;;
11348;SDS011;5729;43.570;27.826;2023-08-06T04:16:47;17.38;;;10.95;;
11348;SDS011;5729;43.570;27.826;2023-08-06T04:19:12;18.27;;;9.88;;
11348;SDS011;5729;43.570;27.826;2023-08-06T04:21:37;15.00;;;10.38;;
11348;SDS011;5729;43.570;27.826;2023-08-06T04:24:04;15.77;;;9.75;;
11348;SDS011;5729;43.570;27.826;2023-08-06T04:26:29;14.45;;;9.43;;
11348;SDS011;5729;43.570;27.826;2023-08-06T04:28:54;14.93;;;9.25;;
11348;SDS011;5729;43.570;27.826;2023-08-06T04:31:20;13.00;;;8.95;;
11348;SDS011;5729;43.570;27.826;2023-08-06T04:33:46;16.33;;;8.45;;
11348;SDS011;5729;43.570;27.826;2023-08-06T04:36:12;15.73;;;9.18;;
11348;SDS011;5729;43.570;27.826;2023-08-06T04:38:38;16.35;;;8.88;;
11348;SDS011;5729;43.570;27.826;2023-08-06T04:41:06;20.67;;;10.40;;
11348;SDS011;5729;43.570;27.826;2023-08-06T04:43:31;14.70;;;9.52;;
11348;SDS011;5729;43.570;27.826;2023-08-06T04:45:57;16.58;;;9.32;;
11348;SDS011;5729;43.570;27.826;2023-08-06T04:48:23;30.35;;;9.70;;
11348;SDS011;5729;43.570;27.826;2023-08-06T04:50:49;14.65;;;9.70;;
11348;SDS011;5729;43.570;27.826;2023-08-06T04:53:15;13.25;;;8.52;;
11348;SDS011;5729;43.570;27.826;2023-08-06T04:55:41;16.67;;;9.35;;
11348;SDS011;5729;43.570;27.826;2023-08-06T04:58:08;21.30;;;9.57;;
11348;SDS011;5729;43.570;27.826;2023-08-06T05:00:37;10.68;;;8.95;;
11348;SDS011;5729;43.570;27.826;2023-08-06T05:03:03;15.55;;;9.98;;
11348;SDS011;5729;43.570;27.826;2023-08-06T05:05:28;14.27;;;9.23;;
11348;SDS011;5729;43.570;27.826;2023-08-06T05:07:54;18.17;;;10.10;;
11348;SDS011;5729;43.570;27.826;2023-08-06T05:10:26;14.23;;;10.23;;
11348;SDS011;5729;43.570;27.826;2023-08-06T05:12:52;14.68;;;9.57;;
11348;SDS011;5729;43.570;27.826;2023-08-06T05:15:18;15.30;;;9.32;;
11348;SDS011;5729;43.570;27.826;2023-08-06T05:17:43;11.10;;;9.55;;
11348;SDS011;5729;43.570;27.826;2023-08-06T05:20:09;15.02;;;9.48;;
11348;SDS011;5729;43.570;27.826;2023-08-06T05:22:35;12.68;;;9.38;;
11348;SDS011;5729;43.570;27.826;2023-08-06T05:25:00;14.25;;;9.25;;
11348;SDS011;5729;43.570;27.826;2023-08-06T05:27:26;16.50;;;9.40;;
11348;SDS011;5729;43.570;27.826;2023-08-06T05:29:54;15.02;;;8.95;;
11348;SDS011;5729;43.570;27.826;2023-08-06T05:32:21;14.90;;;9.02;;
11348;SDS011;5729;43.570;27.826;2023-08-06T05:34:46;13.73;;;8.73;;
11348;SDS011;5729;43.570;27.826;2023-08-06T05:37:11;13.90;;;9.43;;
11348;SDS011;5729;43.570;27.826;2023-08-06T05:39:37;11.90;;;8.80;;
11348;SDS011;5729;43.570;27.826;2023-08-06T05:42:02;11.75;;;7.65;;
11348;SDS011;5729;43.570;27.826;2023-08-06T05:44:28;15.93;;;8.27;;
11348;SDS011;5729;43.570;27.826;2023-08-06T05:46:53;11.43;;;7.80;;
11348;SDS011;5729;43.570;27.826;2023-08-06T05:49:19;12.30;;;9.43;;
11348;SDS011;5729;43.570;27.826;2023-08-06T05:51:44;17.05;;;8.38;;
11348;SDS011;5729;43.570;27.826;2023-08-06T05:54:10;11.80;;;7.38;;
11348;SDS011;5729;43.570;27.826;2023-08-06T05:56:35;9.60;;;6.70;;
11348;SDS011;5729;43.570;27.826;2023-08-06T05:59:01;12.63;;;6.93;;
11348;SDS011;5729;43.570;27.826;2023-08-06T06:01:26;11.30;;;7.18;;
11348;SDS011;5729;43.570;27.826;2023-08-06T06:03:52;9.77;;;6.82;;
11348;SDS011;5729;43.570;27.826;2023-08-06T06:06:17;10.45;;;6.65;;
11348;SDS011;5729;43.570;27.826;2023-08-06T06:08:43;12.20;;;7.13;;
11348;SDS011;5729;43.570;27.826;2023-08-06T06:11:09;8.38;;;6.85;;
11348;SDS011;5729;43.570;27.826;2023-08-06T06:13:35;11.73;;;6.32;;
11348;SDS011;5729;43.570;27.826;2023-08-06T06:16:00;9.18;;;6.18;;
11348;SDS011;5729;43.570;27.826;2023-08-06T06:18:26;12.65;;;5.93;;
11348;SDS011;5729;43.570;27.826;2023-08-06T06:20:51;7.43;;;5.15;;
11348;SDS011;5729;43.570;27.826;2023-08-06T06:23:16;8.57;;;5.85;;
11348;SDS011;5729;43.570;27.826;2023-08-06T06:25:42;7.78;;;6.30;;
11348;SDS011;5729;43.570;27.826;2023-08-06T06:28:08;8.80;;;6.00;;
11348;SDS011;5729;43.570;27.826;2023-08-06T06:30:34;13.32;;;5.63;;
11348;SDS011;5729;43.570;27.826;2023-08-06T06:32:59;9.95;;;6.70;;
11348;SDS011;5729;43.570;27.826;2023-08-06T06:35:25;7.88;;;6.22;;
11348;SDS011;5729;43.570;27.826;2023-08-06T06:37:51;7.47;;;5.85;;
11348;SDS011;5729;43.570;27.826;2023-08-06T06:40:16;7.38;;;5.00;;
11348;SDS011;5729;43.570;27.826;2023-08-06T06:42:42;6.82;;;5.55;;
11348;SDS011;5729;43.570;27.826;2023-08-06T06:45:07;10.07;;;5.68;;
11348;SDS011;5729;43.570;27.826;2023-08-06T06:47:33;9.18;;;5.60;;
11348;SDS011;5729;43.570;27.826;2023-08-06T06:49:59;11.25;;;5.93;;
11348;SDS011;5729;43.570;27.826;2023-08-06T06:52:24;8.95;;;5.50;;
11348;SDS011;5729;43.570;27.826;2023-08-06T06:54:50;14.23;;;6.47;;
11348;SDS011;5729;43.570;27.826;2023-08-06T06:57:15;7.00;;;5.07;;
11348;SDS011;5729;43.570;27.826;2023-08-06T06:59:40;7.82;;;5.50;;
11348;SDS011;5729;43.570;27.826;2023-08-06T07:02:06;9.23;;;5.20;;
11348;SDS011;5729;43.570;27.826;2023-08-06T07:04:32;8.65;;;5.75;;
11348;SDS011;5729;43.570;27.826;2023-08-06T07:06:57;10.35;;;5.45;;
11348;SDS011;5729;43.570;27.826;2023-08-06T07:09:22;18.30;;;5.50;;
11348;SDS011;5729;43.570;27.826;2023-08-06T07:11:48;10.57;;;5.53;;
11348;SDS011;5729;43.570;27.826;2023-08-06T07:14:13;9.45;;;5.55;;
11348;SDS011;5729;43.570;27.826;2023-08-06T07:16:39;13.13;;;5.63;;
11348;SDS011;5729;43.570;27.826;2023-08-06T07:19:05;14.10;;;5.50;;
11348;SDS011;5729;43.570;27.826;2023-08-06T07:21:30;16.67;;;6.63;;
11348;SDS011;5729;43.570;27.826;2023-08-06T07:23:56;17.50;;;7.05;;
11348;SDS011;5729;43.570;27.826;2023-08-06T07:26:24;11.25;;;6.13;;
11348;SDS011;5729;43.570;27.826;2023-08-06T07:28:49;15.68;;;6.32;;
11348;SDS011;5729;43.570;27.826;2023-08-06T07:31:15;8.80;;;5.80;;
11348;SDS011;5729;43.570;27.826;2023-08-06T07:33:40;9.95;;;5.32;;
11348;SDS011;5729;43.570;27.826;2023-08-06T07:36:11;6.70;;;5.13;;
11348;SDS011;5729;43.570;27.826;2023-08-06T07:38:37;13.18;;;4.70;;
11348;SDS011;5729;43.570;27.826;2023-08-06T07:41:03;7.03;;;4.90;;
11348;SDS011;5729;43.570;27.826;2023-08-06T07:43:29;8.55;;;5.35;;
11348;SDS011;5729;43.570;27.826;2023-08-06T07:45:54;6.68;;;4.82;;
11348;SDS011;5729;43.570;27.826;2023-08-06T07:48:23;7.20;;;5.40;;
11348;SDS011;5729;43.570;27.826;2023-08-06T07:50:51;6.75;;;4.60;;
11348;SDS011;5729;43.570;27.826;2023-08-06T07:53:18;7.97;;;4.60;;
11348;SDS011;5729;43.570;27.826;2023-08-06T07:55:47;7.60;;;4.47;;
11348;SDS011;5729;43.570;27.826;2023-08-06T07:58:16;5.28;;;4.47;;
11348;SDS011;5729;43.570;27.826;2023-08-06T08:00:42;8.32;;;4.55;;
11348;SDS011;5729;43.570;27.826;2023-08-06T08:03:10;5.90;;;4.38;;
11348;SDS011;5729;43.570;27.826;2023-08-06T08:05:37;6.40;;;4.43;;
11348;SDS011;5729;43.570;27.826;2023-08-06T08:08:02;7.43;;;4.40;;
11348;SDS011;5729;43.570;27.826;2023-08-06T08:10:28;6.47;;;4.07;;
11348;SDS011;5729;43.570;27.826;2023-08-06T08:12:53;8.45;;;4.57;;
11348;SDS011;5729;43.570;27.826;2023-08-06T08:15:19;8.90;;;5.10;;
11348;SDS011;5729;43.570;27.826;2023-08-06T08:17:45;14.55;;;4.38;;
11348;SDS011;5729;43.570;27.826;2023-08-06T08:20:12;6.30;;;3.90;;
11348;SDS011;5729;43.570;27.826;2023-08-06T08:22:38;9.30;;;4.28;;
11348;SDS011;5729;43.570;27.826;2023-08-06T08:25:03;9.15;;;4.38;;
11348;SDS011;5729;43.570;27.826;2023-08-06T08:27:29;9.40;;;3.60;;
11348;SDS011;5729;43.570;27.826;2023-08-06T08:29:55;4.47;;;3.58;;
11348;SDS011;5729;43.570;27.826;2023-08-06T08:32:20;7.80;;;4.05;;
11348;SDS011;5729;43.570;27.826;2023-08-06T08:34:45;4.72;;;3.63;;
11348;SDS011;5729;43.570;27.826;2023-08-06T08:37:11;5.03;;;3.72;;
11348;SDS011;5729;43.570;27.826;2023-08-06T08:39:36;5.78;;;3.95;;
11348;SDS011;5729;43.570;27.826;2023-08-06T08:42:02;9.18;;;4.30;;
11348;SDS011;5729;43.570;27.826;2023-08-06T08:44:28;6.18;;;4.10;;
11348;SDS011;5729;43.570;27.826;2023-08-06T08:46:57;5.60;;;3.30;;
11348;SDS011;5729;43.570;27.826;2023-08-06T08:49:23;4.03;;;3.38;;
11348;SDS011;5729;43.570;27.826;2023-08-06T08:51:49;8.10;;;3.70;;
11348;SDS011;5729;43.570;27.826;2023-08-06T08:54:17;4.85;;;3.30;;
11348;SDS011;5729;43.570;27.826;2023-08-06T08:56:45;5.45;;;3.08;;
11348;SDS011;5729;43.570;27.826;2023-08-06T08:59:10;3.58;;;3.05;;
11348;SDS011;5729;43.570;27.826;2023-08-06T09:01:37;4.97;;;3.67;;
11348;SDS011;5729;43.570;27.826;2023-08-06T09:04:04;11.95;;;3.85;;
11348;SDS011;5729;43.570;27.826;2023-08-06T09:06:31;6.20;;;3.85;;
11348;SDS011;5729;43.570;27.826;2023-08-06T09:09:01;6.45;;;3.67;;
11348;SDS011;5729;43.570;27.826;2023-08-06T09:11:39;10.05;;;3.47;;
11348;SDS011;5729;43.570;27.826;2023-08-06T09:14:08;5.75;;;3.60;;
11348;SDS011;5729;43.570;27.826;2023-08-06T09:16:37;6.00;;;3.90;;
11348;SDS011;5729;43.570;27.826;2023-08-06T09:19:07;8.65;;;3.58;;
11348;SDS011;5729;43.570;27.826;2023-08-06T09:21:42;5.57;;;3.63;;
11348;SDS011;5729;43.570;27.826;2023-08-06T09:24:08;8.80;;;3.40;;
11348;SDS011;5729;43.570;27.826;2023-08-06T09:26:36;4.90;;;3.55;;
11348;SDS011;5729;43.570;27.826;2023-08-06T09:29:04;5.38;;;3.50;;
11348;SDS011;5729;43.570;27.826;2023-08-06T09:31:33;6.38;;;3.90;;
11348;SDS011;5729;43.570;27.826;2023-08-06T09:34:10;8.73;;;3.70;;
11348;SDS011;5729;43.570;27.826;2023-08-06T09:36:46;6.35;;;3.63;;
11348;SDS011;5729;43.570;27.826;2023-08-06T09:39:13;6.07;;;3.85;;
11348;SDS011;5729;43.570;27.826;2023-08-06T09:41:40;7.47;;;4.00;;
11348;SDS011;5729;43.570;27.826;2023-08-06T09:44:10;5.05;;;3.58;;
11348;SDS011;5729;43.570;27.826;2023-08-06T09:46:51;6.60;;;3.47;;
11348;SDS011;5729;43.570;27.826;2023-08-06T09:49:18;3.85;;;3.40;;
11348;SDS011;5729;43.570;27.826;2023-08-06T09:51:45;9.43;;;4.10;;
11348;SDS011;5729;43.570;27.826;2023-08-06T09:54:13;5.50;;;3.30;;
11348;SDS011;5729;43.570;27.826;2023-08-06T09:56:41;7.53;;;3.53;;
11348;SDS011;5729;43.570;27.826;2023-08-06T09:59:07;7.97;;;3.83;;
11348;SDS011;5729;43.570;27.826;2023-08-06T10:01:34;4.72;;;3.97;;
11348;SDS011;5729;43.570;27.826;2023-08-06T10:04:00;6.13;;;3.72;;
11348;SDS011;5729;43.570;27.826;2023-08-06T10:06:28;6.15;;;4.10;;
11348;SDS011;5729;43.570;27.826;2023-08-06T10:08:54;6.18;;;3.33;;
11348;SDS011;5729;43.570;27.826;2023-08-06T10:11:21;6.88;;;4.05;;
11348;SDS011;5729;43.570;27.826;2023-08-06T10:13:49;6.60;;;4.05;;
11348;SDS011;5729;43.570;27.826;2023-08-06T10:16:23;7.03;;;3.70;;
11348;SDS011;5729;43.570;27.826;2023-08-06T10:18:49;5.63;;;3.40;;
11348;SDS011;5729;43.570;27.826;2023-08-06T10:21:15;7.95;;;3.60;;
11348;SDS011;5729;43.570;27.826;2023-08-06T10:23:41;5.15;;;3.72;;
11348;SDS011;5729;43.570;27.826;2023-08-06T10:26:06;8.60;;;4.20;;
11348;SDS011;5729;43.570;27.826;2023-08-06T10:28:38;4.95;;;4.30;;
11348;SDS011;5729;43.570;27.826;2023-08-06T10:31:05;11.52;;;4.63;;
11348;SDS011;5729;43.570;27.826;2023-08-06T10:33:43;6.38;;;3.88;;
11348;SDS011;5729;43.570;27.826;2023-08-06T10:36:10;8.77;;;3.80;;
11348;SDS011;5729;43.570;27.826;2023-08-06T10:41:28;6.10;;;3.50;;
11348;SDS011;5729;43.570;27.826;2023-08-06T10:44:12;8.82;;;4.03;;
11348;SDS011;5729;43.570;27.826;2023-08-06T10:46:38;4.90;;;3.90;;
11348;SDS011;5729;43.570;27.826;2023-08-06T10:49:04;7.40;;;3.92;;
11348;SDS011;5729;43.570;27.826;2023-08-06T10:51:30;7.93;;;4.25;;
11348;SDS011;5729;43.570;27.826;2023-08-06T10:53:55;5.97;;;4.93;;
11348;SDS011;5729;43.570;27.826;2023-08-06T10:56:23;7.93;;;4.30;;
11348;SDS011;5729;43.570;27.826;2023-08-06T10:58:55;7.63;;;4.57;;
11348;SDS011;5729;43.570;27.826;2023-08-06T11:01:22;9.77;;;4.28;;
11348;SDS011;5729;43.570;27.826;2023-08-06T11:03:48;7.22;;;3.97;;
11348;SDS011;5729;43.570;27.826;2023-08-06T11:06:21;6.88;;;4.93;;
11348;SDS011;5729;43.570;27.826;2023-08-06T11:08:51;5.03;;;4.35;;
11348;SDS011;5729;43.570;27.826;2023-08-06T11:11:18;6.53;;;4.05;;
11348;SDS011;5729;43.570;27.826;2023-08-06T11:13:45;10.98;;;4.55;;
11348;SDS011;5729;43.570;27.826;2023-08-06T11:16:14;5.53;;;4.15;;
11348;SDS011;5729;43.570;27.826;2023-08-06T11:18:41;5.57;;;4.20;;
11348;SDS011;5729;43.570;27.826;2023-08-06T11:21:07;6.13;;;4.03;;
11348;SDS011;5729;43.570;27.826;2023-08-06T11:23:33;8.35;;;5.20;;
11348;SDS011;5729;43.570;27.826;2023-08-06T11:25:59;8.60;;;4.68;;
11348;SDS011;5729;43.570;27.826;2023-08-06T11:28:25;7.30;;;4.45;;
11348;SDS011;5729;43.570;27.826;2023-08-06T11:30:51;11.35;;;4.38;;
11348;SDS011;5729;43.570;27.826;2023-08-06T11:33:20;5.97;;;4.43;;
11348;SDS011;5729;43.570;27.826;2023-08-06T11:35:47;6.78;;;4.78;;
11348;SDS011;5729;43.570;27.826;2023-08-06T11:38:14;6.32;;;4.28;;
11348;SDS011;5729;43.570;27.826;2023-08-06T11:40:41;6.22;;;4.28;;
11348;SDS011;5729;43.570;27.826;2023-08-06T11:43:08;9.00;;;4.90;;
11348;SDS011;5729;43.570;27.826;2023-08-06T11:45:34;5.10;;;4.60;;
11348;SDS011;5729;43.570;27.826;2023-08-06T11:48:01;6.45;;;4.47;;
11348;SDS011;5729;43.570;27.826;2023-08-06T11:50:26;7.53;;;5.00;;
11348;SDS011;5729;43.570;27.826;2023-08-06T11:52:53;5.35;;;4.75;;
11348;SDS011;5729;43.570;27.826;2023-08-06T11:55:28;9.77;;;5.55;;
11348;SDS011;5729;43.570;27.826;2023-08-06T11:57:54;6.00;;;4.65;;
11348;SDS011;5729;43.570;27.826;2023-08-06T12:00:20;6.85;;;5.00;;
11348;SDS011;5729;43.570;27.826;2023-08-06T12:02:48;7.53;;;5.15;;
11348;SDS011;5729;43.570;27.826;2023-08-06T12:05:16;6.53;;;5.53;;
11348;SDS011;5729;43.570;27.826;2023-08-06T12:07:53;8.85;;;5.50;;
11348;SDS011;5729;43.570;27.826;2023-08-06T12:10:22;7.13;;;5.25;;
11348;SDS011;5729;43.570;27.826;2023-08-06T12:12:51;8.90;;;4.22;;
11348;SDS011;5729;43.570;27.826;2023-08-06T12:15:18;7.88;;;4.60;;
11348;SDS011;5729;43.570;27.826;2023-08-06T12:17:44;84.05;;;6.70;;
11348;SDS011;5729;43.570;27.826;2023-08-06T12:20:09;57.42;;;5.70;;
11348;SDS011;5729;43.570;27.826;2023-08-06T12:22:36;21.85;;;4.15;;
11348;SDS011;5729;43.570;27.826;2023-08-06T12:25:04;18.98;;;5.15;;
11348;SDS011;5729;43.570;27.826;2023-08-06T12:27:43;0.20;;;0.20;;
11348;SDS011;5729;43.570;27.826;2023-08-06T12:30:11;0.30;;;0.30;;
11348;SDS011;5729;43.570;27.826;2023-08-06T12:32:38;0.20;;;0.20;;
11348;SDS011;5729;43.570;27.826;2023-08-06T12:35:04;0.30;;;0.30;;
11348;SDS011;5729;43.570;27.826;2023-08-06T12:37:32;0.35;;;0.35;;
11348;SDS011;5729;43.570;27.826;2023-08-06T12:39:57;0.30;;;0.30;;
11348;SDS011;5729;43.570;27.826;2023-08-06T12:42:23;0.30;;;0.30;;
11348;SDS011;5729;43.570;27.826;2023-08-06T12:44:49;0.28;;;0.28;;
11348;SDS011;5729;43.570;27.826;2023-08-06T12:47:15;0.30;;;0.30;;
11348;SDS011;5729;43.570;27.826;2023-08-06T12:49:41;0.20;;;0.20;;
11348;SDS011;5729;43.570;27.826;2023-08-06T12:52:06;0.30;;;0.30;;
11348;SDS011;5729;43.570;27.826;2023-08-06T12:54:34;6.35;;;5.82;;
11348;SDS011;5729;43.570;27.826;2023-08-06T12:57:02;0.73;;;0.73;;
11348;SDS011;5729;43.570;27.826;2023-08-06T12:59:28;0.30;;;0.30;;
11348;SDS011;5729;43.570;27.826;2023-08-06T13:01:53;0.30;;;0.30;;
11348;SDS011;5729;43.570;27.826;2023-08-06T13:04:19;0.30;;;0.30;;
11348;SDS011;5729;43.570;27.826;2023-08-06T13:06:44;0.25;;;0.25;;
11348;SDS011;5729;43.570;27.826;2023-08-06T13:09:10;0.30;;;0.30;;
11348;SDS011;5729;43.570;27.826;2023-08-06T13:11:36;0.30;;;0.30;;
11348;SDS011;5729;43.570;27.826;2023-08-06T13:16:31;0.25;;;0.25;;
11348;SDS011;5729;43.570;27.826;2023-08-06T13:18:57;0.30;;;0.30;;
11348;SDS011;5729;43.570;27.826;2023-08-06T13:21:23;0.30;;;0.30;;
11348;SDS011;5729;43.570;27.826;2023-08-06T13:23:49;0.28;;;0.28;;
11348;SDS011;5729;43.570;27.826;2023-08-06T13:26:15;0.30;;;0.30;;
11348;SDS011;5729;43.570;27.826;2023-08-06T13:28:43;0.22;;;0.22;;
11348;SDS011;5729;43.570;27.826;2023-08-06T13:31:09;0.38;;;0.38;;
11348;SDS011;5729;43.570;27.826;2023-08-06T13:33:34;0.40;;;0.40;;
11348;SDS011;5729;43.570;27.826;2023-08-06T13:36:00;0.30;;;0.30;;
11348;SDS011;5729;43.570;27.826;2023-08-06T13:38:25;0.30;;;0.30;;
11348;SDS011;5729;43.570;27.826;2023-08-06T13:40:51;0.30;;;0.30;;
11348;SDS011;5729;43.570;27.826;2023-08-06T13:43:16;0.20;;;0.20;;
11348;SDS011;5729;43.570;27.826;2023-08-06T13:45:44;0.30;;;0.30;;
11348;SDS011;5729;43.570;27.826;2023-08-06T13:48:09;3.35;;;3.03;;
11348;SDS011;5729;43.570;27.826;2023-08-06T13:50:35;4.50;;;3.90;;
11348;SDS011;5729;43.570;27.826;2023-08-06T13:53:01;4.57;;;3.10;;
11348;SDS011;5729;43.570;27.826;2023-08-06T13:55:27;4.20;;;3.20;;
11348;SDS011;5729;43.570;27.826;2023-08-06T13:57:52;5.13;;;3.03;;
11348;SDS011;5729;43.570;27.826;2023-08-06T14:00:18;7.68;;;3.50;;
11348;SDS011;5729;43.570;27.826;2023-08-06T14:02:43;4.85;;;2.75;;
11348;SDS011;5729;43.570;27.826;2023-08-06T14:05:09;4.65;;;2.90;;
11348;SDS011;5729;43.570;27.826;2023-08-06T14:07:35;4.30;;;2.95;;
11348;SDS011;5729;43.570;27.826;2023-08-06T14:10:00;4.65;;;2.90;;
11348;SDS011;5729;43.570;27.826;2023-08-06T14:12:25;3.97;;;2.90;;
11348;SDS011;5729;43.570;27.826;2023-08-06T14:14:51;3.30;;;3.00;;
11348;SDS011;5729;43.570;27.826;2023-08-06T14:17:16;4.95;;;3.08;;
11348;SDS011;5729;43.570;27.826;2023-08-06T14:19:42;3.95;;;2.75;;
11348;SDS011;5729;43.570;27.826;2023-08-06T14:22:07;5.25;;;3.03;;
11348;SDS011;5729;43.570;27.826;2023-08-06T14:24:32;4.80;;;3.05;;
11348;SDS011;5729;43.570;27.826;2023-08-06T14:26:58;3.70;;;2.90;;
11348;SDS011;5729;43.570;27.826;2023-08-06T14:29:23;7.50;;;3.20;;
11348;SDS011;5729;43.570;27.826;2023-08-06T14:31:49;5.05;;;2.90;;
11348;SDS011;5729;43.570;27.826;2023-08-06T14:34:15;5.82;;;3.13;;
11348;SDS011;5729;43.570;27.826;2023-08-06T14:36:41;4.18;;;3.17;;
11348;SDS011;5729;43.570;27.826;2023-08-06T14:39:06;4.78;;;3.35;;
11348;SDS011;5729;43.570;27.826;2023-08-06T14:41:32;9.60;;;3.25;;
11348;SDS011;5729;43.570;27.826;2023-08-06T14:43:57;4.88;;;3.08;;
11348;SDS011;5729;43.570;27.826;2023-08-06T14:46:22;8.63;;;3.60;;
11348;SDS011;5729;43.570;27.826;2023-08-06T14:48:48;4.47;;;2.88;;
11348;SDS011;5729;43.570;27.826;2023-08-06T14:51:13;4.15;;;3.10;;
11348;SDS011;5729;43.570;27.826;2023-08-06T14:53:40;3.70;;;3.30;;